Time;durP1;ratioP1;P1;durP2;ratioP2;P2;SDS_P1;SDS_P2;PMS_P1;PMS_P2;Temp;Humidity;BMP_temperature;BMP_pressure;BME280_temperature;BME280_humidity;BME280_pressure;Samples;Min_cycle;Max_cycle;Signal;HPM_P1;HPM_P2
2022/07/21 00:02:14;;;;;;;;;9.33;8.00;;;;;;;;5016881;28;45207;-72
2022/07/21 00:04:39;;;;;;;;;8.67;8.67;;;;;;;;5016623;28;45482;-71
2022/07/21 00:07:04;;;;;;;;;5.33;5.00;;;;;;;;5016945;28;45380;-72
2022/07/21 00:09:29;;;;;;;;;8.67;8.67;;;;;;;;4995061;28;45528;-73
2022/07/21 00:11:54;;;;;;;;;8.00;8.00;;;;;;;;4997224;28;45466;-73
2022/07/21 00:14:20;;;;;;;;;12.00;10.00;;;;;;;;4996869;28;45363;-72
2022/07/21 00:16:45;;;;;;;;;14.00;11.00;;;;;;;;4996951;28;45343;-71
2022/07/21 00:19:11;;;;;;;;;8.67;8.67;;;;;;;;4997100;28;45623;-72
2022/07/21 00:21:36;;;;;;;;;8.33;7.00;;;;;;;;4997179;28;45472;-72
2022/07/21 00:24:02;;;;;;;;;12.00;9.67;;;;;;;;4996888;28;45414;-72
2022/07/21 00:26:27;;;;;;;;;9.00;9.00;;;;;;;;4996760;28;45406;-72
2022/07/21 00:28:52;;;;;;;;;9.00;9.00;;;;;;;;4997116;28;45385;-71
2022/07/21 00:31:17;;;;;;;;;13.67;8.67;;;;;;;;4996875;28;46043;-72
2022/07/21 00:33:43;;;;;;;;;13.00;11.33;;;;;;;;4996603;28;45608;-72
2022/07/21 00:36:08;;;;;;;;;11.67;10.00;;;;;;;;4995929;28;45293;-72
2022/07/21 00:38:33;;;;;;;;;12.00;10.00;;;;;;;;4996852;28;45437;-72
2022/07/21 00:40:58;;;;;;;;;14.33;9.67;;;;;;;;4996999;28;45422;-72
2022/07/21 00:43:24;;;;;;;;;10.33;9.33;;;;;;;;4996433;28;46398;-72
2022/07/21 00:45:51;;;;;;;;;7.00;6.67;;;;;;;;4996560;28;45430;-72
2022/07/21 00:48:17;;;;;;;;;14.33;9.00;;;;;;;;4996705;28;45485;-71
2022/07/21 00:50:42;;;;;;;;;8.00;8.00;;;;;;;;4996834;28;45369;-72
2022/07/21 00:53:07;;;;;;;;;11.67;8.00;;;;;;;;4996676;28;45342;-71
2022/07/21 00:55:33;;;;;;;;;6.67;6.67;;;;;;;;4996898;28;45256;-71
2022/07/21 00:57:58;;;;;;;;;9.33;7.67;;;;;;;;4997043;28;45425;-71
2022/07/21 01:00:25;;;;;;;;;12.00;11.33;;;;;;;;4998397;28;45444;-71
2022/07/21 01:02:50;;;;;;;;;9.00;9.00;;;;;;;;4999758;28;46376;-72
2022/07/21 01:05:16;;;;;;;;;10.67;8.33;;;;;;;;5000454;28;45564;-71
2022/07/21 01:07:42;;;;;;;;;7.33;6.67;;;;;;;;5000322;28;45311;-71
2022/07/21 01:10:08;;;;;;;;;12.00;7.00;;;;;;;;5000466;28;45634;-71
2022/07/21 01:12:33;;;;;;;;;9.33;7.00;;;;;;;;5000150;28;46039;-71
2022/07/21 01:14:58;;;;;;;;;12.67;7.67;;;;;;;;5000167;28;45295;-71
2022/07/21 01:17:23;;;;;;;;;13.33;8.33;;;;;;;;5000351;28;45301;-71
2022/07/21 01:19:49;;;;;;;;;11.33;9.00;;;;;;;;5000388;28;45327;-70
2022/07/21 01:22:14;;;;;;;;;12.00;8.33;;;;;;;;4999465;28;47310;-71
2022/07/21 01:24:39;;;;;;;;;13.33;9.33;;;;;;;;5000122;28;45325;-70
2022/07/21 01:27:04;;;;;;;;;12.00;8.33;;;;;;;;5000134;28;45263;-70
2022/07/21 01:29:30;;;;;;;;;14.33;9.00;;;;;;;;5000416;28;45428;-71
2022/07/21 01:31:55;;;;;;;;;14.00;10.67;;;;;;;;4999692;28;45336;-71
2022/07/21 01:34:20;;;;;;;;;10.00;9.67;;;;;;;;4999879;28;45327;-72
2022/07/21 01:36:46;;;;;;;;;13.33;13.00;;;;;;;;4999977;28;45284;-71
2022/07/21 01:41:55;;;;;;;;;14.00;14.00;;;;;;;;4999755;28;45487;-71
2022/07/21 01:44:20;;;;;;;;;18.00;14.67;;;;;;;;4999744;28;45382;-71
2022/07/21 01:46:47;;;;;;;;;15.00;12.33;;;;;;;;4999664;28;45235;-71
2022/07/21 01:49:13;;;;;;;;;15.33;12.33;;;;;;;;5000093;28;45243;-71
2022/07/21 01:51:39;;;;;;;;;16.67;14.00;;;;;;;;4999427;28;45766;-71
2022/07/21 01:54:04;;;;;;;;;10.00;5.67;;;;;;;;4999351;28;45276;-71
2022/07/21 01:56:30;;;;;;;;;13.00;10.67;;;;;;;;4999689;28;45262;-71
2022/07/21 01:58:56;;;;;;;;;14.33;11.33;;;;;;;;4999744;28;45454;-71
2022/07/21 02:01:23;;;;;;;;;13.33;12.67;;;;;;;;4999496;28;46279;-72
2022/07/21 02:03:49;;;;;;;;;17.00;13.67;;;;;;;;4998817;28;45370;-72
2022/07/21 02:06:14;;;;;;;;;18.67;14.67;;;;;;;;4999450;28;45318;-71
2022/07/21 02:08:42;;;;;;;;;14.00;14.00;;;;;;;;4999536;28;45405;-72
2022/07/21 02:11:07;;;;;;;;;15.33;14.33;;;;;;;;4998693;28;46883;-71
2022/07/21 02:13:32;;;;;;;;;14.00;14.00;;;;;;;;4999205;28;45228;-71
2022/07/21 02:15:58;;;;;;;;;25.67;18.33;;;;;;;;4999490;28;45252;-71
2022/07/21 02:18:23;;;;;;;;;15.00;13.67;;;;;;;;4999406;28;45354;-71
2022/07/21 02:20:50;;;;;;;;;20.00;17.33;;;;;;;;4999016;28;47581;-71
2022/07/21 02:23:15;;;;;;;;;15.67;15.67;;;;;;;;4999119;28;45408;-70
2022/07/21 02:25:40;;;;;;;;;20.00;19.00;;;;;;;;4999134;28;45266;-72
2022/07/21 02:28:06;;;;;;;;;15.67;14.67;;;;;;;;4999282;28;45551;-70
2022/07/21 02:30:31;;;;;;;;;24.00;19.00;;;;;;;;4998832;28;46239;-71
2022/07/21 02:32:56;;;;;;;;;19.00;14.67;;;;;;;;4998902;28;45334;-71
2022/07/21 02:35:21;;;;;;;;;23.00;20.00;;;;;;;;4998995;28;45455;-71
2022/07/21 02:37:47;;;;;;;;;21.00;19.00;;;;;;;;4999257;28;45268;-71
2022/07/21 02:40:12;;;;;;;;;17.67;17.33;;;;;;;;4998799;28;46689;-71
2022/07/21 02:42:38;;;;;;;;;18.67;18.33;;;;;;;;4998838;28;45294;-71
2022/07/21 02:45:07;;;;;;;;;24.67;22.33;;;;;;;;4999077;28;45393;-71
2022/07/21 02:47:32;;;;;;;;;19.67;17.67;;;;;;;;4998764;28;45204;-71
2022/07/21 02:49:58;;;;;;;;;24.67;21.67;;;;;;;;4998366;28;46419;-71
2022/07/21 02:52:23;;;;;;;;;23.00;20.00;;;;;;;;4998515;28;45287;-71
2022/07/21 02:54:48;;;;;;;;;20.33;18.00;;;;;;;;4998835;28;45247;-72
2022/07/21 02:57:13;;;;;;;;;27.00;21.33;;;;;;;;4998991;28;45224;-71
2022/07/21 02:59:39;;;;;;;;;22.00;19.33;;;;;;;;4998397;28;45443;-71
2022/07/21 03:02:04;;;;;;;;;21.67;18.67;;;;;;;;4998468;28;45432;-72
2022/07/21 03:04:29;;;;;;;;;23.33;20.33;;;;;;;;4998402;28;45469;-71
2022/07/21 03:06:54;;;;;;;;;24.33;19.00;;;;;;;;4998506;28;45504;-70
2022/07/21 03:09:19;;;;;;;;;26.33;23.33;;;;;;;;5006078;28;45373;-71
2022/07/21 03:11:45;;;;;;;;;27.00;19.33;;;;;;;;5018029;28;45295;-71
2022/07/21 03:14:10;;;;;;;;;27.33;26.67;;;;;;;;5018350;28;45211;-71
2022/07/21 03:16:35;;;;;;;;;30.33;26.33;;;;;;;;5018316;28;45331;-71
2022/07/21 03:19:00;;;;;;;;;26.00;24.00;;;;;;;;5017574;28;47278;-67
2022/07/21 03:21:26;;;;;;;;;24.33;19.67;;;;;;;;5018116;28;45370;-68
2022/07/21 03:23:51;;;;;;;;;28.00;19.33;;;;;;;;5017381;28;45572;-71
2022/07/21 03:26:16;;;;;;;;;27.33;23.67;;;;;;;;5018446;28;45881;-72
2022/07/21 03:28:42;;;;;;;;;28.67;21.00;;;;;;;;5017869;28;45431;-71
2022/07/21 03:31:07;;;;;;;;;28.33;24.00;;;;;;;;5017614;28;45405;-68
2022/07/21 03:33:33;;;;;;;;;25.67;23.00;;;;;;;;5017778;28;45231;-66
2022/07/21 03:35:59;;;;;;;;;17.00;16.33;;;;;;;;5017983;28;45378;-71
2022/07/21 03:38:24;;;;;;;;;25.33;23.00;;;;;;;;5017897;28;45573;-69
2022/07/21 03:40:49;;;;;;;;;26.33;19.67;;;;;;;;5017740;28;45367;-68
2022/07/21 03:43:15;;;;;;;;;33.33;26.67;;;;;;;;5017710;28;45427;-70
2022/07/21 03:45:40;;;;;;;;;27.33;20.33;;;;;;;;5017929;28;45278;-69
2022/07/21 03:48:06;;;;;;;;;17.33;16.67;;;;;;;;5017259;28;46192;-70
2022/07/21 03:50:32;;;;;;;;;26.33;24.67;;;;;;;;5017734;28;45386;-71
2022/07/21 03:52:57;;;;;;;;;24.33;24.00;;;;;;;;5017555;28;45362;-70
2022/07/21 03:55:23;;;;;;;;;27.33;23.67;;;;;;;;5017786;28;45286;-69
2022/07/21 03:57:53;;;;;;;;;32.33;26.33;;;;;;;;5017570;28;47011;-68
2022/07/21 04:00:20;;;;;;;;;26.33;25.00;;;;;;;;4999585;28;45367;-69
2022/07/21 04:02:45;;;;;;;;;28.33;24.33;;;;;;;;5017273;28;45293;-70
2022/07/21 04:05:12;;;;;;;;;32.67;28.33;;;;;;;;5017540;28;45445;-71
2022/07/21 04:07:41;;;;;;;;;31.00;26.33;;;;;;;;5017408;28;46283;-70
2022/07/21 04:10:07;;;;;;;;;25.67;24.33;;;;;;;;5017117;28;45441;-70
2022/07/21 04:12:33;;;;;;;;;32.67;26.67;;;;;;;;5017173;28;45299;-72
2022/07/21 04:14:58;;;;;;;;;28.33;23.33;;;;;;;;5017439;28;45310;-72
2022/07/21 04:17:23;;;;;;;;;28.67;25.67;;;;;;;;5017320;28;46598;-71
2022/07/21 04:19:49;;;;;;;;;32.00;28.33;;;;;;;;5016904;28;45511;-72
2022/07/21 04:22:14;;;;;;;;;35.67;27.67;;;;;;;;5017456;28;45238;-73
2022/07/21 04:24:39;;;;;;;;;27.00;25.33;;;;;;;;5017311;28;45429;-71
2022/07/21 04:27:04;;;;;;;;;32.33;26.67;;;;;;;;5017025;28;47670;-72
2022/07/21 04:29:30;;;;;;;;;34.00;25.67;;;;;;;;5017255;28;45320;-71
2022/07/21 04:31:55;;;;;;;;;25.67;22.67;;;;;;;;5017140;28;45332;-71
2022/07/21 04:34:20;;;;;;;;;32.33;29.33;;;;;;;;5018278;28;45875;-71
2022/07/21 04:36:45;;;;;;;;;25.67;23.67;;;;;;;;5019927;28;46472;-71
2022/07/21 04:39:11;;;;;;;;;27.33;23.33;;;;;;;;5020627;28;45545;-72
2022/07/21 04:41:36;;;;;;;;;28.67;26.33;;;;;;;;5020580;28;45341;-72
2022/07/21 04:44:01;;;;;;;;;33.00;27.67;;;;;;;;5020768;28;45541;-71
2022/07/21 04:46:26;;;;;;;;;30.67;24.67;;;;;;;;5020442;28;45537;-71
2022/07/21 04:48:52;;;;;;;;;30.67;27.67;;;;;;;;5020145;28;45420;-72
2022/07/21 04:51:17;;;;;;;;;26.00;21.33;;;;;;;;5020534;28;45322;-72
2022/07/21 04:53:42;;;;;;;;;27.67;26.00;;;;;;;;5020467;28;45223;-72
2022/07/21 04:56:07;;;;;;;;;29.00;26.67;;;;;;;;5020220;28;45580;-72
2022/07/21 04:58:33;;;;;;;;;26.67;25.67;;;;;;;;5020431;28;45290;-72
2022/07/21 05:00:58;;;;;;;;;28.67;25.33;;;;;;;;5020074;28;45286;-72
2022/07/21 05:03:23;;;;;;;;;28.33;25.67;;;;;;;;5019964;28;45351;-72
2022/07/21 05:05:48;;;;;;;;;30.33;24.67;;;;;;;;5018592;28;45787;-72
2022/07/21 05:08:13;;;;;;;;;28.00;25.33;;;;;;;;5019900;28;45295;-72
2022/07/21 05:10:39;;;;;;;;;26.67;24.67;;;;;;;;5020343;28;45410;-72
2022/07/21 05:13:04;;;;;;;;;28.00;23.67;;;;;;;;5020279;28;45227;-71
2022/07/21 05:15:29;;;;;;;;;27.00;25.67;;;;;;;;5019834;28;45606;-71
2022/07/21 05:17:54;;;;;;;;;27.00;24.33;;;;;;;;5020036;28;45197;-71
2022/07/21 05:20:20;;;;;;;;;26.67;25.67;;;;;;;;5019927;28;45202;-72
2022/07/21 05:22:45;;;;;;;;;31.67;25.33;;;;;;;;5020188;28;45155;-72
2022/07/21 05:25:10;;;;;;;;;27.33;22.00;;;;;;;;5019546;28;46101;-72
2022/07/21 05:27:35;;;;;;;;;31.00;27.00;;;;;;;;5019828;28;45195;-71
2022/07/21 05:30:01;;;;;;;;;30.33;27.00;;;;;;;;5019547;28;45387;-71
2022/07/21 05:32:26;;;;;;;;;33.33;27.67;;;;;;;;5019943;28;45511;-72
2022/07/21 05:34:51;;;;;;;;;29.00;25.67;;;;;;;;5019626;28;46786;-72
2022/07/21 05:37:17;;;;;;;;;33.67;28.00;;;;;;;;5019587;28;45892;-73
2022/07/21 05:39:42;;;;;;;;;33.67;25.33;;;;;;;;5020067;28;45308;-71
2022/07/21 05:42:07;;;;;;;;;30.67;25.67;;;;;;;;5020021;28;45443;-71
2022/07/21 05:44:32;;;;;;;;;37.00;29.67;;;;;;;;5019487;28;47407;-71
2022/07/21 05:46:57;;;;;;;;;26.33;24.33;;;;;;;;5018732;28;45535;-72
2022/07/21 05:49:23;;;;;;;;;38.00;30.67;;;;;;;;5019573;28;45358;-72
2022/07/21 05:51:48;;;;;;;;;34.33;30.67;;;;;;;;5019637;28;45509;-71
2022/07/21 05:54:13;;;;;;;;;30.00;28.67;;;;;;;;5019360;28;45315;-71
2022/07/21 05:56:39;;;;;;;;;32.00;27.00;;;;;;;;5019518;28;45497;-73
2022/07/21 05:59:04;;;;;;;;;33.00;30.67;;;;;;;;5019299;28;45274;-73
2022/07/21 06:01:29;;;;;;;;;34.33;31.33;;;;;;;;5019361;28;45328;-73
2022/07/21 06:03:54;;;;;;;;;40.00;28.67;;;;;;;;5018755;28;45347;-74
2022/07/21 06:06:20;;;;;;;;;33.00;29.33;;;;;;;;5019152;28;45421;-74
2022/07/21 06:08:46;;;;;;;;;29.33;26.67;;;;;;;;5019416;28;45294;-73
2022/07/21 06:11:13;;;;;;;;;35.67;30.67;;;;;;;;5019410;28;45304;-72
2022/07/21 06:13:38;;;;;;;;;33.00;29.67;;;;;;;;5018808;28;46387;-73
2022/07/21 06:16:04;;;;;;;;;34.00;30.00;;;;;;;;5019025;28;45324;-72
2022/07/21 06:18:29;;;;;;;;;34.33;28.67;;;;;;;;5019102;28;45442;-72
2022/07/21 06:20:55;;;;;;;;;29.00;25.33;;;;;;;;5019075;28;45409;-71
2022/07/21 06:23:20;;;;;;;;;32.67;29.33;;;;;;;;5018762;28;47222;-72
2022/07/21 06:25:45;;;;;;;;;21.33;21.33;;;;;;;;5018921;28;45230;-71
2022/07/21 06:28:11;;;;;;;;;31.00;27.67;;;;;;;;5018967;28;45298;-72
2022/07/21 06:30:36;;;;;;;;;25.33;21.00;;;;;;;;5018759;28;45282;-72
2022/07/21 06:33:01;;;;;;;;;24.33;23.33;;;;;;;;5018869;28;46549;-72
2022/07/21 06:35:27;;;;;;;;;32.00;30.00;;;;;;;;5018551;28;45358;-70
2022/07/21 06:37:52;;;;;;;;;26.33;20.33;;;;;;;;5018745;28;45408;-74
2022/07/21 06:40:17;;;;;;;;;32.33;28.33;;;;;;;;5019056;28;45341;-74
2022/07/21 06:42:42;;;;;;;;;32.33;22.00;;;;;;;;5018608;28;45374;-72
2022/07/21 06:45:08;;;;;;;;;35.67;28.33;;;;;;;;5018677;28;45430;-72
2022/07/21 06:47:33;;;;;;;;;22.33;20.33;;;;;;;;5018498;28;45455;-72
2022/07/21 06:50:04;;;;;;;;;33.00;28.33;;;;;;;;5018771;28;45416;-72
2022/07/21 06:52:29;;;;;;;;;28.67;24.33;;;;;;;;5018431;28;45439;-72
2022/07/21 06:54:55;;;;;;;;;31.67;27.00;;;;;;;;5018124;28;45187;-73
2022/07/21 06:57:20;;;;;;;;;28.33;23.67;;;;;;;;5018603;28;45274;-73
2022/07/21 06:59:45;;;;;;;;;25.67;24.00;;;;;;;;5018496;28;45517;-73
2022/07/21 07:02:11;;;;;;;;;30.00;24.00;;;;;;;;5018094;28;46609;-72
2022/07/21 07:04:36;;;;;;;;;30.33;25.33;;;;;;;;5018423;28;45307;-72
2022/07/21 07:07:01;;;;;;;;;28.33;23.67;;;;;;;;5018402;28;45273;-73
2022/07/21 07:09:26;;;;;;;;;34.67;25.67;;;;;;;;5018462;28;45372;-73
2022/07/21 07:11:52;;;;;;;;;30.67;24.33;;;;;;;;5018082;28;45631;-73
2022/07/21 07:14:18;;;;;;;;;31.33;24.00;;;;;;;;5017368;28;45290;-73
2022/07/21 07:16:43;;;;;;;;;46.67;37.00;;;;;;;;5017951;28;45307;-72
2022/07/21 07:19:08;;;;;;;;;34.33;26.33;;;;;;;;5018248;28;45254;-73
2022/07/21 07:21:34;;;;;;;;;28.33;23.33;;;;;;;;5015817;28;45952;-75
2022/07/21 07:24:01;;;;;;;;;33.33;28.67;;;;;;;;5016866;28;45414;-73
2022/07/21 07:26:28;;;;;;;;;30.67;26.67;;;;;;;;5017906;28;45179;-75
2022/07/21 07:28:53;;;;;;;;;31.67;28.00;;;;;;;;5018361;28;45444;-75
2022/07/21 07:31:18;;;;;;;;;34.33;28.00;;;;;;;;5017998;28;46592;-74
2022/07/21 07:33:43;;;;;;;;;31.67;23.33;;;;;;;;5018139;28;45401;-75
2022/07/21 07:36:11;;;;;;;;;30.33;24.00;;;;;;;;5017837;28;45354;-74
2022/07/21 07:38:37;;;;;;;;;37.67;31.33;;;;;;;;5018192;28;45421;-74
2022/07/21 07:41:02;;;;;;;;;32.33;27.33;;;;;;;;5017881;28;45361;-75
2022/07/21 07:43:27;;;;;;;;;29.67;29.00;;;;;;;;5017792;28;45490;-75
2022/07/21 07:45:53;;;;;;;;;32.33;26.67;;;;;;;;5017884;28;45267;-75
2022/07/21 07:48:18;;;;;;;;;31.33;28.33;;;;;;;;5018075;28;45374;-75
2022/07/21 07:50:43;;;;;;;;;40.00;31.67;;;;;;;;5017720;28;46165;-75
2022/07/21 07:53:08;;;;;;;;;30.00;25.67;;;;;;;;5016812;28;45380;-74
2022/07/21 07:55:33;;;;;;;;;43.33;32.33;;;;;;;;5017720;28;45313;-76
2022/07/21 07:57:59;;;;;;;;;33.67;31.00;;;;;;;;5018155;28;45302;-73
2022/07/21 08:00:24;;;;;;;;;32.00;29.67;;;;;;;;5017525;28;46079;-75
2022/07/21 08:02:49;;;;;;;;;38.33;31.33;;;;;;;;5017412;28;45357;-75
2022/07/21 08:05:15;;;;;;;;;31.67;28.67;;;;;;;;5017465;28;45358;-75
2022/07/21 08:07:40;;;;;;;;;36.67;32.33;;;;;;;;5017246;28;45405;-74
2022/07/21 08:10:06;;;;;;;;;31.00;27.67;;;;;;;;5035669;28;45404;-75
2022/07/21 08:12:31;;;;;;;;;33.00;30.67;;;;;;;;5037226;28;45444;-75
2022/07/21 08:14:56;;;;;;;;;30.33;28.33;;;;;;;;5037288;28;45443;-75
2022/07/21 08:17:22;;;;;;;;;34.67;30.33;;;;;;;;5037305;28;45239;-77
2022/07/21 08:19:47;;;;;;;;;37.67;31.33;;;;;;;;5037006;28;46282;-74
2022/07/21 08:22:12;;;;;;;;;39.67;35.00;;;;;;;;5036984;28;45386;-73
2022/07/21 08:24:37;;;;;;;;;37.67;31.67;;;;;;;;5037122;28;45210;-74
2022/07/21 08:27:03;;;;;;;;;39.67;32.00;;;;;;;;5037430;28;45341;-74
2022/07/21 08:29:28;;;;;;;;;37.67;31.33;;;;;;;;5019057;28;47378;-74
2022/07/21 08:31:53;;;;;;;;;35.67;30.33;;;;;;;;5036932;28;45301;-73
2022/07/21 08:34:18;;;;;;;;;33.00;29.67;;;;;;;;5036959;28;45396;-72
2022/07/21 08:36:44;;;;;;;;;34.00;29.33;;;;;;;;5037129;28;45293;-73
2022/07/21 08:39:09;;;;;;;;;30.00;27.67;;;;;;;;5037096;28;45374;-72
2022/07/21 08:41:35;;;;;;;;;34.67;30.00;;;;;;;;5036845;28;45578;-73
2022/07/21 08:44:01;;;;;;;;;34.00;31.33;;;;;;;;5036939;28;45355;-75
2022/07/21 08:46:28;;;;;;;;;33.00;28.67;;;;;;;;5036943;28;45496;-73
2022/07/21 08:48:53;;;;;;;;;37.67;33.00;;;;;;;;5036771;28;45533;-74
2022/07/21 08:51:18;;;;;;;;;34.00;32.00;;;;;;;;5036602;28;45368;-73
2022/07/21 08:53:45;;;;;;;;;33.00;29.33;;;;;;;;5036457;28;45401;-72
2022/07/21 08:56:10;;;;;;;;;39.00;31.33;;;;;;;;5036706;28;45510;-74
2022/07/21 08:58:36;;;;;;;;;26.67;18.33;;;;;;;;5036684;28;46500;-73
2022/07/21 09:01:02;;;;;;;;;37.67;30.00;;;;;;;;5036227;28;45384;-73
2022/07/21 09:03:27;;;;;;;;;35.33;27.67;;;;;;;;5036303;28;45410;-76
2022/07/21 09:06:00;;;;;;;;;37.00;31.00;;;;;;;;5036643;28;45223;-74
2022/07/21 09:08:36;;;;;;;;;38.33;31.00;;;;;;;;5036335;28;46997;-74
2022/07/21 09:11:11;;;;;;;;;30.00;30.00;;;;;;;;5036269;28;45274;-74
2022/07/21 09:13:36;;;;;;;;;33.33;29.00;;;;;;;;5036602;28;45317;-73
2022/07/21 09:16:02;;;;;;;;;32.33;30.67;;;;;;;;5036534;28;45456;-74
2022/07/21 09:18:27;;;;;;;;;30.67;27.00;;;;;;;;5036357;28;45381;-73
2022/07/21 09:20:53;;;;;;;;;38.00;30.33;;;;;;;;5036604;28;45416;-75
2022/07/21 09:23:19;;;;;;;;;32.33;24.67;;;;;;;;5039818;28;45521;-75
2022/07/21 09:25:48;;;;;;;;;27.33;25.33;;;;;;;;5039994;28;45345;-74
2022/07/21 09:28:20;;;;;;;;;27.67;25.00;;;;;;;;5039587;28;46087;-73
2022/07/21 09:30:59;;;;;;;;;28.33;25.67;;;;;;;;5039530;28;45566;-75
2022/07/21 09:33:31;;;;;;;;;32.33;29.00;;;;;;;;5039544;28;45309;-72
2022/07/21 09:36:04;;;;;;;;;32.00;28.33;;;;;;;;5039698;28;45637;-74
2022/07/21 09:38:30;;;;;;;;;34.33;30.33;;;;;;;;5039119;28;46844;-73
2022/07/21 09:41:04;;;;;;;;;34.00;28.67;;;;;;;;5039204;28;45222;-73
2022/07/21 09:43:34;;;;;;;;;43.67;35.33;;;;;;;;5039569;28;45418;-72
2022/07/21 09:46:01;;;;;;;;;35.00;31.00;;;;;;;;5039561;28;45330;-75
2022/07/21 09:48:30;;;;;;;;;36.33;30.67;;;;;;;;5038931;28;46650;-73
2022/07/21 09:50:56;;;;;;;;;37.00;32.00;;;;;;;;5039317;28;45369;-75
2022/07/21 09:53:21;;;;;;;;;31.33;28.00;;;;;;;;5039394;28;45338;-73
2022/07/21 09:55:46;;;;;;;;;29.00;28.67;;;;;;;;5039532;28;45278;-74
2022/07/21 09:58:12;;;;;;;;;30.67;27.33;;;;;;;;5039276;28;46454;-74
2022/07/21 10:00:37;;;;;;;;;37.00;32.00;;;;;;;;5038869;28;45414;-75
2022/07/21 10:03:03;;;;;;;;;32.33;27.67;;;;;;;;5039311;28;45493;-74
2022/07/21 10:05:29;;;;;;;;;28.00;28.00;;;;;;;;5039274;28;45524;-75
2022/07/21 10:07:55;;;;;;;;;23.67;22.00;;;;;;;;5038710;28;47273;-74
2022/07/21 10:10:20;;;;;;;;;21.67;18.33;;;;;;;;5038998;28;45476;-73
2022/07/21 10:12:46;;;;;;;;;27.33;21.00;;;;;;;;5038947;28;45606;-73
2022/07/21 10:15:11;;;;;;;;;20.67;19.33;;;;;;;;5039007;28;45501;-73
2022/07/21 10:17:38;;;;;;;;;21.33;20.33;;;;;;;;5020950;28;47251;-76
2022/07/21 10:20:07;;;;;;;;;23.33;19.00;;;;;;;;5038932;28;45419;-75
2022/07/21 10:22:51;;;;;;;;;26.67;22.33;;;;;;;;5038789;28;45414;-73
2022/07/21 10:25:17;;;;;;;;;18.67;16.67;;;;;;;;5038960;28;45247;-78
2022/07/21 10:28:00;;;;;;;;;17.33;16.00;;;;;;;;5038549;28;47235;-75
2022/07/21 10:30:36;;;;;;;;;21.00;18.00;;;;;;;;5038616;28;45352;-74
2022/07/21 10:33:02;;;;;;;;;17.33;17.00;;;;;;;;5038297;28;45360;-76
2022/07/21 10:35:28;;;;;;;;;22.67;20.67;;;;;;;;5038834;28;45346;-76
2022/07/21 10:37:54;;;;;;;;;26.33;20.67;;;;;;;;5038376;28;46183;-74
2022/07/21 10:40:19;;;;;;;;;20.00;16.33;;;;;;;;5038653;28;45313;-73
2022/07/21 10:42:45;;;;;;;;;15.67;14.00;;;;;;;;5038864;28;45499;-74
2022/07/21 10:45:33;;;;;;;;;17.33;14.33;;;;;;;;5038887;28;45409;-73
2022/07/21 10:47:59;;;;;;;;;15.00;11.67;;;;;;;;5038385;28;46263;-73
2022/07/21 10:50:35;;;;;;;;;12.00;11.00;;;;;;;;5038317;28;45434;-74
2022/07/21 10:53:01;;;;;;;;;13.33;11.00;;;;;;;;5038419;28;45422;-72
2022/07/21 10:55:27;;;;;;;;;13.67;11.33;;;;;;;;5038610;28;45275;-75
2022/07/21 10:58:10;;;;;;;;;20.33;18.67;;;;;;;;5038200;28;46856;-73
2022/07/21 11:00:36;;;;;;;;;18.67;18.67;;;;;;;;5038036;28;45462;-74
2022/07/21 11:03:13;;;;;;;;;18.67;13.00;;;;;;;;5037880;28;45412;-76
2022/07/21 11:05:58;;;;;;;;;13.00;13.00;;;;;;;;5038223;28;45417;-76
2022/07/21 11:08:29;;;;;;;;;16.67;13.33;;;;;;;;5038060;28;45674;-76
2022/07/21 11:11:06;;;;;;;;;14.00;13.33;;;;;;;;5037987;28;45325;-73
2022/07/21 11:13:51;;;;;;;;;18.33;12.67;;;;;;;;5038154;28;45449;-75
2022/07/21 11:16:16;;;;;;;;;13.67;12.67;;;;;;;;5038063;28;45429;-74
2022/07/21 11:18:43;;;;;;;;;15.67;11.00;;;;;;;;5037952;28;47027;-73
2022/07/21 11:21:10;;;;;;;;;14.00;13.33;;;;;;;;5037824;28;45334;-74
2022/07/21 11:23:39;;;;;;;;;19.00;14.00;;;;;;;;5038000;28;45371;-74
2022/07/21 11:26:04;;;;;;;;;20.33;16.67;;;;;;;;5037942;28;45502;-73
2022/07/21 11:28:30;;;;;;;;;21.00;17.00;;;;;;;;5037702;28;45998;-73
2022/07/21 11:31:14;;;;;;;;;16.67;13.00;;;;;;;;5037940;28;45219;-73
2022/07/21 11:33:42;;;;;;;;;11.00;11.00;;;;;;;;5037907;28;45345;-74
2022/07/21 11:36:07;;;;;;;;;14.33;13.33;;;;;;;;5037724;28;45317;-74
2022/07/21 11:38:32;;;;;;;;;20.33;15.00;;;;;;;;5037411;28;45528;-73
2022/07/21 11:41:13;;;;;;;;;21.67;16.00;;;;;;;;5037985;28;45610;-73
2022/07/21 11:43:45;;;;;;;;;23.00;19.33;;;;;;;;5036766;28;45288;-77
2022/07/21 11:46:10;;;;;;;;;15.00;13.00;;;;;;;;5037643;28;45398;-76
2022/07/21 11:48:36;;;;;;;;;14.67;12.67;;;;;;;;5037200;28;46950;-77
2022/07/21 11:51:04;;;;;;;;;17.00;16.67;;;;;;;;5037473;28;45352;-77
2022/07/21 11:53:30;;;;;;;;;14.00;13.33;;;;;;;;5037433;28;45482;-75
2022/07/21 11:55:55;;;;;;;;;22.00;18.00;;;;;;;;5037807;28;45355;-76
2022/07/21 11:58:20;;;;;;;;;19.00;18.33;;;;;;;;5037164;28;46170;-73
2022/07/21 12:00:46;;;;;;;;;15.00;13.33;;;;;;;;5037120;28;45476;-74
2022/07/21 12:03:13;;;;;;;;;13.33;12.33;;;;;;;;5037241;28;45226;-74
2022/07/21 12:05:40;;;;;;;;;16.33;13.00;;;;;;;;5037379;28;45447;-74
2022/07/21 12:08:05;;;;;;;;;17.00;13.00;;;;;;;;5037112;28;45575;-73
2022/07/21 12:10:30;;;;;;;;;12.00;12.00;;;;;;;;5037016;28;45443;-73
2022/07/21 12:13:00;;;;;;;;;19.33;14.00;;;;;;;;5037176;28;45396;-73
2022/07/21 12:15:31;;;;;;;;;13.00;11.00;;;;;;;;5037441;28;45492;-72
2022/07/21 12:18:06;;;;;;;;;13.00;12.00;;;;;;;;5036790;28;46205;-73
2022/07/21 12:20:39;;;;;;;;;13.67;12.33;;;;;;;;5037101;28;45460;-74
2022/07/21 12:23:23;;;;;;;;;15.00;13.33;;;;;;;;5037177;28;45448;-73
2022/07/21 12:25:49;;;;;;;;;14.33;12.33;;;;;;;;5037239;28;45422;-73
2022/07/21 12:28:14;;;;;;;;;19.33;15.33;;;;;;;;5036827;28;45472;-73
2022/07/21 12:30:44;;;;;;;;;13.33;12.67;;;;;;;;5036754;28;45412;-72
2022/07/21 12:33:11;;;;;;;;;12.00;10.67;;;;;;;;5036721;28;45399;-73
2022/07/21 12:35:37;;;;;;;;;15.33;12.67;;;;;;;;5036872;28;45553;-74
2022/07/21 12:38:02;;;;;;;;;10.00;10.00;;;;;;;;5035888;28;45544;-73
2022/07/21 12:40:29;;;;;;;;;20.67;16.00;;;;;;;;5036746;28;45377;-74
2022/07/21 12:43:05;;;;;;;;;13.00;11.33;;;;;;;;5036958;28;45420;-73
2022/07/21 12:45:30;;;;;;;;;15.33;12.33;;;;;;;;5036663;28;45394;-73
2022/07/21 12:48:08;;;;;;;;;11.33;11.00;;;;;;;;5036304;28;46353;-72
2022/07/21 12:50:34;;;;;;;;;13.33;12.00;;;;;;;;5036658;28;45373;-75
2022/07/21 12:52:59;;;;;;;;;9.00;9.00;;;;;;;;5036695;28;45299;-75
2022/07/21 12:55:24;;;;;;;;;9.33;8.00;;;;;;;;5037974;28;45460;-75
2022/07/21 12:57:49;;;;;;;;;7.67;7.67;;;;;;;;5040269;28;45426;-76
2022/07/21 13:00:15;;;;;;;;;7.33;6.00;;;;;;;;5040077;28;45559;-73
2022/07/21 13:02:47;;;;;;;;;8.67;8.67;;;;;;;;5040178;28;45416;-73
2022/07/21 13:05:12;;;;;;;;;8.00;8.00;;;;;;;;5040500;28;45456;-75
2022/07/21 13:07:38;;;;;;;;;9.67;9.67;;;;;;;;5039928;28;47094;-75
2022/07/21 13:10:03;;;;;;;;;6.67;6.00;;;;;;;;5040118;28;45461;-74
2022/07/21 13:12:28;;;;;;;;;7.67;7.67;;;;;;;;5040144;28;45421;-73
2022/07/21 13:14:53;;;;;;;;;9.67;7.33;;;;;;;;5040371;28;45437;-76
2022/07/21 13:17:19;;;;;;;;;10.67;10.67;;;;;;;;5040038;28;45309;-74
2022/07/21 13:19:44;;;;;;;;;6.67;6.67;;;;;;;;5040045;28;45414;-74
2022/07/21 13:22:09;;;;;;;;;9.67;8.00;;;;;;;;5039897;28;45199;-73
2022/07/21 13:24:34;;;;;;;;;11.67;9.67;;;;;;;;5040121;28;45422;-73
2022/07/21 13:27:00;;;;;;;;;10.00;8.67;;;;;;;;5039619;28;45453;-73
2022/07/21 13:29:25;;;;;;;;;8.33;8.33;;;;;;;;5039635;28;45562;-74
2022/07/21 13:31:50;;;;;;;;;10.33;8.33;;;;;;;;5039771;28;45392;-73
2022/07/21 13:34:15;;;;;;;;;8.00;6.33;;;;;;;;5040225;28;45341;-72
2022/07/21 13:36:41;;;;;;;;;13.00;9.00;;;;;;;;5039390;28;46412;-73
2022/07/21 13:39:06;;;;;;;;;9.67;7.33;;;;;;;;5039734;28;45195;-73
2022/07/21 13:41:32;;;;;;;;;6.67;6.67;;;;;;;;5039494;28;45343;-73
2022/07/21 13:43:57;;;;;;;;;7.33;7.00;;;;;;;;5039975;28;45390;-72
2022/07/21 13:46:22;;;;;;;;;10.33;7.33;;;;;;;;5039347;28;47420;-74
2022/07/21 13:48:48;;;;;;;;;9.33;6.67;;;;;;;;5039405;28;45287;-73
2022/07/21 13:51:14;;;;;;;;;10.00;7.33;;;;;;;;5039544;28;45486;-73
2022/07/21 13:53:40;;;;;;;;;9.00;7.67;;;;;;;;5039404;28;45431;-74
2022/07/21 13:56:05;;;;;;;;;5.00;5.00;;;;;;;;5039141;28;46268;-74
2022/07/21 13:58:30;;;;;;;;;10.00;5.33;;;;;;;;5039537;28;45332;-74
2022/07/21 14:00:55;;;;;;;;;6.00;5.00;;;;;;;;5039361;28;45417;-72
2022/07/21 14:03:21;;;;;;;;;10.33;6.00;;;;;;;;5039289;28;45480;-74
2022/07/21 14:05:46;;;;;;;;;7.67;7.00;;;;;;;;5039017;28;46535;-72
2022/07/21 14:08:11;;;;;;;;;7.33;7.33;;;;;;;;5038323;28;45484;-73
2022/07/21 14:10:36;;;;;;;;;7.67;6.33;;;;;;;;5039538;28;45415;-73
2022/07/21 14:13:02;;;;;;;;;7.00;5.67;;;;;;;;5039326;28;45396;-73
2022/07/21 14:15:27;;;;;;;;;6.33;5.33;;;;;;;;5038944;28;45451;-73
2022/07/21 14:17:52;;;;;;;;;5.67;5.00;;;;;;;;5039274;28;45397;-74
2022/07/21 14:20:18;;;;;;;;;11.00;8.33;;;;;;;;5039086;28;45499;-76